createdAt,value
2022-08-24T00:00:23.698Z,39.70
2022-08-24T00:02:50.887Z,39.70
2022-08-24T00:05:21.111Z,39.60
2022-08-24T00:07:49.304Z,39.50
2022-08-24T00:10:17.386Z,39.60
2022-08-24T00:12:44.585Z,39.70
2022-08-24T00:15:13.723Z,39.70
2022-08-24T00:17:40.726Z,39.70
2022-08-24T00:20:09.840Z,39.80
2022-08-24T00:22:36.937Z,40.10
2022-08-24T00:25:04.320Z,40.20
2022-08-24T00:27:31.227Z,40.50
2022-08-24T00:29:57.986Z,40.60
2022-08-24T00:32:24.779Z,40.90
2022-08-24T00:34:59.050Z,41.00
2022-08-24T00:37:27.383Z,41.10
2022-08-24T00:39:54.446Z,41.10
2022-08-24T00:42:21.280Z,41.30
2022-08-24T00:44:48.142Z,41.50
2022-08-24T00:47:24.030Z,41.60
2022-08-24T00:50:12.095Z,41.60
2022-08-24T00:52:45.257Z,42.60
2022-08-24T00:55:19.399Z,42.10
2022-08-24T00:57:51.169Z,42.10
2022-08-24T01:00:21.850Z,42.00
2022-08-24T01:02:52.999Z,42.00
2022-08-24T01:05:19.790Z,42.00
2022-08-24T01:07:50.506Z,42.00
2022-08-24T01:10:23.915Z,42.00
2022-08-24T01:13:00.415Z,42.00
2022-08-24T01:15:29.770Z,41.90
2022-08-24T01:18:16.016Z,41.90
2022-08-24T01:20:46.198Z,42.00
2022-08-24T01:23:51.003Z,41.90
2022-08-24T01:26:32.655Z,41.90
2022-08-24T01:29:07.555Z,41.80
2022-08-24T01:31:34.799Z,41.80
2022-08-24T01:34:02.122Z,42.00
2022-08-24T01:36:37.138Z,42.10
2022-08-24T01:39:29.052Z,42.10
2022-08-24T01:41:56.396Z,42.10
2022-08-24T01:44:24.950Z,42.30
2022-08-24T01:46:54.012Z,42.40
2022-08-24T01:49:26.532Z,42.50
2022-08-24T01:51:53.491Z,42.60
2022-08-24T01:54:20.462Z,42.70
2022-08-24T01:56:47.296Z,42.80
2022-08-24T01:59:15.947Z,43.50
2022-08-24T02:01:48.940Z,42.90
2022-08-24T02:04:17.621Z,43.00
2022-08-24T02:06:45.933Z,43.00
2022-08-24T02:09:13.410Z,43.20
2022-08-24T02:11:41.170Z,43.20
2022-08-24T02:14:08.322Z,43.30
2022-08-24T02:16:35.112Z,43.30
2022-08-24T02:19:01.921Z,43.30
2022-08-24T02:21:29.191Z,43.40
2022-08-24T02:23:56.030Z,43.50
2022-08-24T02:26:23.042Z,43.50
2022-08-24T02:28:54.228Z,43.50
2022-08-24T02:31:21.902Z,43.50
2022-08-24T02:33:48.729Z,43.70
2022-08-24T02:36:25.339Z,43.60
2022-08-24T02:38:54.342Z,43.70
2022-08-24T02:41:22.338Z,43.70
2022-08-24T02:43:49.072Z,43.70
2022-08-24T02:46:21.433Z,43.60
2022-08-24T02:48:57.505Z,43.80
2022-08-24T02:51:41.593Z,43.90
2022-08-24T02:54:12.498Z,43.90
2022-08-24T02:56:39.672Z,44.00
2022-08-24T02:59:06.679Z,44.00
2022-08-24T03:01:33.618Z,44.00
2022-08-24T03:04:00.512Z,44.00
2022-08-24T03:06:27.254Z,44.00
2022-08-24T03:08:56.224Z,44.00
2022-08-24T03:11:27.765Z,44.10
2022-08-24T03:13:59.260Z,44.20
2022-08-24T03:16:28.163Z,44.20
2022-08-24T03:18:55.212Z,44.20
2022-08-24T03:21:22.010Z,44.20
2022-08-24T03:23:48.783Z,44.40
2022-08-24T03:26:16.077Z,44.40
2022-08-24T03:28:44.669Z,44.40
2022-08-24T03:31:12.558Z,44.40
2022-08-24T03:33:39.535Z,44.40
2022-08-24T03:36:09.063Z,44.50
2022-08-24T03:38:37.926Z,44.50
2022-08-24T03:41:04.806Z,44.50
2022-08-24T03:43:47.088Z,44.50
2022-08-24T03:46:17.198Z,44.50
2022-08-24T03:48:44.437Z,44.50
2022-08-24T03:51:17.742Z,44.50
2022-08-24T03:53:44.878Z,44.70
2022-08-24T03:56:12.174Z,44.60
2022-08-24T03:58:41.678Z,44.60
2022-08-24T04:01:09.241Z,44.90
2022-08-24T04:03:38.971Z,45.10
2022-08-24T04:06:06.139Z,45.20
2022-08-24T04:08:33.574Z,45.30
2022-08-24T04:11:01.146Z,45.10
2022-08-24T04:13:31.876Z,45.10
2022-08-24T04:16:04.911Z,45.10
2022-08-24T04:18:31.728Z,45.20
2022-08-24T04:20:58.665Z,45.20
2022-08-24T04:23:29.160Z,45.20
2022-08-24T04:26:12.866Z,45.20
2022-08-24T04:28:39.664Z,45.00
2022-08-24T04:31:07.322Z,45.10
2022-08-24T04:33:34.481Z,45.10
2022-08-24T04:36:01.526Z,45.10
2022-08-24T04:38:29.735Z,45.10
2022-08-24T04:40:56.551Z,45.00
2022-08-24T04:43:27.094Z,45.00
2022-08-24T04:45:53.933Z,45.70
2022-08-24T04:48:20.718Z,45.00
2022-08-24T04:50:47.743Z,45.10
2022-08-24T04:53:15.114Z,45.00
2022-08-24T04:55:49.535Z,45.00
2022-08-24T04:58:17.725Z,45.00
2022-08-24T05:00:45.280Z,45.00
2022-08-24T05:03:12.405Z,45.00
2022-08-24T05:05:46.182Z,45.10
2022-08-24T05:08:13.970Z,45.00
2022-08-24T05:10:44.351Z,45.00
2022-08-24T05:13:11.669Z,45.00
2022-08-24T05:15:46.340Z,44.90
2022-08-24T05:18:14.593Z,45.00
2022-08-24T05:20:46.642Z,45.20
2022-08-24T05:23:14.174Z,45.30
2022-08-24T05:25:42.772Z,45.00
2022-08-24T05:28:09.866Z,45.00
2022-08-24T05:30:42.327Z,45.00
2022-08-24T05:33:09.668Z,45.00
2022-08-24T05:35:43.687Z,44.90
2022-08-24T05:38:11.017Z,45.10
2022-08-24T05:40:37.819Z,45.20
2022-08-24T05:43:05.007Z,45.10
2022-08-24T05:45:31.847Z,45.30
2022-08-24T05:47:58.572Z,45.20
2022-08-24T05:50:25.355Z,45.30
2022-08-24T05:52:52.068Z,45.30
2022-08-24T05:55:18.888Z,45.30
2022-08-24T05:57:45.716Z,45.30
2022-08-24T06:00:13.079Z,45.30
2022-08-24T06:02:39.992Z,45.00
2022-08-24T06:05:07.083Z,44.90
2022-08-24T06:07:34.086Z,45.00
2022-08-24T06:10:14.610Z,45.10
2022-08-24T06:12:48.474Z,45.20
2022-08-24T06:15:15.533Z,46.00
2022-08-24T06:17:42.358Z,45.30
2022-08-24T06:20:09.800Z,45.40
2022-08-24T06:22:36.586Z,45.50
2022-08-24T06:25:22.384Z,45.20
2022-08-24T06:27:49.126Z,44.80
2022-08-24T06:30:15.996Z,44.80
2022-08-24T06:32:44.092Z,44.80
2022-08-24T06:35:11.241Z,44.50
2022-08-24T06:37:38.301Z,44.50
2022-08-24T06:40:05.861Z,44.30
2022-08-24T06:42:34.179Z,44.40
2022-08-24T06:45:00.990Z,44.40
2022-08-24T06:47:27.756Z,44.30
2022-08-24T06:49:54.574Z,44.10
2022-08-24T06:52:21.754Z,44.10
2022-08-24T06:54:48.479Z,44.10
2022-08-24T06:57:15.423Z,43.90
2022-08-24T06:59:43.141Z,43.70
2022-08-24T07:02:10.436Z,43.70
2022-08-24T07:04:37.564Z,43.60
2022-08-24T07:07:04.443Z,43.20
2022-08-24T07:09:32.604Z,43.10
2022-08-24T07:11:59.912Z,42.90
2022-08-24T07:14:26.767Z,43.00
2022-08-24T07:16:53.732Z,43.40
2022-08-24T07:19:20.551Z,42.20
2022-08-24T07:21:47.294Z,42.30
2022-08-24T07:24:14.350Z,42.30
2022-08-24T07:26:41.558Z,41.60
2022-08-24T07:29:43.737Z,41.00
2022-08-24T07:32:02.070Z,40.70
2022-08-24T07:34:29.264Z,40.40
2022-08-24T07:36:56.617Z,39.80
2022-08-24T07:39:23.378Z,39.50
2022-08-24T07:42:12.053Z,38.90
2022-08-24T07:44:38.662Z,38.30
2022-08-24T07:47:27.233Z,38.10
2022-08-24T07:49:52.808Z,38.00
2022-08-24T07:52:19.841Z,38.10
2022-08-24T07:54:46.715Z,38.10
2022-08-24T07:57:13.417Z,38.00
2022-08-24T07:59:40.177Z,37.30
2022-08-24T08:02:08.241Z,36.80
2022-08-24T08:04:35.001Z,36.90
2022-08-24T08:07:02.072Z,36.50
2022-08-24T08:09:29.140Z,36.40
2022-08-24T08:11:55.959Z,36.20
2022-08-24T08:14:22.718Z,36.00
2022-08-24T08:16:49.952Z,35.90
2022-08-24T08:19:17.509Z,35.50
2022-08-24T08:22:11.014Z,35.50
2022-08-24T08:24:40.061Z,35.60
2022-08-24T08:27:07.038Z,35.50
2022-08-24T08:29:35.095Z,35.30
2022-08-24T08:32:02.070Z,35.00
2022-08-24T08:34:31.308Z,34.50
2022-08-24T08:36:59.089Z,33.80
2022-08-24T08:39:25.998Z,33.90
2022-08-24T08:42:08.624Z,34.00
2022-08-24T08:44:38.571Z,34.00
2022-08-24T08:47:34.269Z,34.00
2022-08-24T08:50:14.923Z,33.50
2022-08-24T08:53:18.955Z,33.20
2022-08-24T08:55:48.506Z,33.50
2022-08-24T08:58:57.123Z,33.50
2022-08-24T09:01:46.573Z,33.20
2022-08-24T09:04:36.746Z,33.70
2022-08-24T09:07:07.111Z,33.50
2022-08-24T09:09:35.079Z,33.10
2022-08-24T09:12:20.614Z,32.90
2022-08-24T09:15:05.978Z,32.80
2022-08-24T09:17:56.041Z,32.70
2022-08-24T09:20:27.620Z,32.60
2022-08-24T09:23:16.213Z,32.60
2022-08-24T09:25:58.415Z,32.60
2022-08-24T09:28:57.727Z,32.40
2022-08-24T09:31:24.662Z,32.30
2022-08-24T09:34:30.216Z,32.20
2022-08-24T09:37:24.957Z,32.00
2022-08-24T09:39:54.592Z,31.80
2022-08-24T09:42:44.524Z,32.20
2022-08-24T09:45:17.333Z,32.10
2022-08-24T09:48:03.678Z,31.80
2022-08-24T09:50:56.785Z,31.60
2022-08-24T09:53:54.805Z,31.10
2022-08-24T09:57:11.563Z,30.80
2022-08-24T10:00:14.009Z,30.40
2022-08-24T10:03:05.126Z,30.50
2022-08-24T10:06:01.850Z,30.50
2022-08-24T10:08:34.933Z,30.50
2022-08-24T10:11:23.225Z,30.50
2022-08-24T10:13:50.787Z,30.50
2022-08-24T10:16:41.516Z,30.50
2022-08-24T10:19:29.860Z,30.50
2022-08-24T10:22:25.909Z,30.60
2022-08-24T10:25:03.269Z,30.70
2022-08-24T10:27:59.795Z,29.90
2022-08-24T10:31:02.400Z,30.00
2022-08-24T10:33:38.445Z,29.00
2022-08-24T10:36:35.296Z,29.70
2022-08-24T10:39:29.626Z,29.70
2022-08-24T10:42:53.558Z,29.70
2022-08-24T10:46:08.393Z,29.60
2022-08-24T10:48:35.202Z,29.20
2022-08-24T10:51:05.675Z,29.30
2022-08-24T10:53:33.290Z,28.90
2022-08-24T10:56:08.260Z,28.80
2022-08-24T10:58:34.999Z,28.50
2022-08-24T11:01:13.558Z,28.60
2022-08-24T11:04:04.554Z,28.30
2022-08-24T11:07:01.977Z,28.40
2022-08-24T11:09:43.362Z,28.50
2022-08-24T11:12:35.769Z,28.60
2022-08-24T11:15:26.403Z,28.50
2022-08-24T11:18:02.004Z,28.10
2022-08-24T11:20:36.420Z,27.80
2022-08-24T11:23:07.882Z,27.60
2022-08-24T11:25:38.338Z,27.40
2022-08-24T11:28:33.580Z,27.50
2022-08-24T11:31:01.293Z,27.50
2022-08-24T11:33:31.096Z,27.50
2022-08-24T11:36:00.490Z,27.50
2022-08-24T11:38:34.424Z,27.50
2022-08-24T11:41:09.503Z,27.50
2022-08-24T11:43:42.586Z,27.20
2022-08-24T11:46:37.506Z,28.10
2022-08-24T11:49:16.183Z,27.30
2022-08-24T11:52:01.114Z,27.50
2022-08-24T11:54:38.632Z,27.40
2022-08-24T11:57:32.925Z,27.30
2022-08-24T12:00:15.909Z,26.90
2022-08-24T12:02:55.524Z,26.80
2022-08-24T12:05:44.883Z,26.60
2022-08-24T12:08:26.174Z,26.50
2022-08-24T12:11:18.690Z,26.50
2022-08-24T12:14:26.106Z,26.40
2022-08-24T12:17:04.362Z,26.20
2022-08-24T12:19:37.399Z,26.50
2022-08-24T12:22:07.140Z,26.20
2022-08-24T12:24:36.694Z,26.30
2022-08-24T12:27:10.730Z,26.20
2022-08-24T12:29:44.584Z,25.90
2022-08-24T12:32:38.853Z,25.50
2022-08-24T12:35:12.720Z,25.50
2022-08-24T12:37:57.358Z,25.60
2022-08-24T12:40:24.294Z,25.90
2022-08-24T12:43:06.216Z,25.70
2022-08-24T12:45:34.873Z,25.60
2022-08-24T12:48:11.510Z,25.50
2022-08-24T12:50:48.642Z,25.80
2022-08-24T12:53:46.209Z,25.40
2022-08-24T12:56:31.735Z,25.70
2022-08-24T12:59:04.525Z,25.40
2022-08-24T13:01:36.059Z,25.30
2022-08-24T13:04:40.423Z,25.30
2022-08-24T13:07:27.627Z,25.00
2022-08-24T13:10:00.182Z,25.20
2022-08-24T13:12:39.426Z,24.70
2022-08-24T13:15:27.992Z,24.80
2022-08-24T13:18:02.537Z,24.80
2022-08-24T13:20:32.682Z,24.90
2022-08-24T13:23:21.498Z,24.80
2022-08-24T13:25:49.769Z,24.50
2022-08-24T13:28:25.382Z,24.20
2022-08-24T13:31:03.330Z,24.20
2022-08-24T13:33:51.535Z,24.20
2022-08-24T13:37:03.193Z,24.30
2022-08-24T13:39:59.667Z,24.40
2022-08-24T13:42:47.279Z,24.40
2022-08-24T13:45:46.687Z,24.40
2022-08-24T13:48:24.091Z,24.40
2022-08-24T13:51:05.717Z,24.10
2022-08-24T13:54:26.820Z,24.00
2022-08-24T13:57:15.884Z,23.90
2022-08-24T13:59:55.852Z,24.30
2022-08-24T14:03:03.057Z,24.30
2022-08-24T14:05:43.415Z,24.40
2022-08-24T14:08:30.033Z,24.40
2022-08-24T14:11:15.426Z,24.50
2022-08-24T14:14:06.148Z,24.50
2022-08-24T14:17:08.483Z,24.60
2022-08-24T14:20:14.337Z,24.50
2022-08-24T14:23:25.270Z,24.10
2022-08-24T14:26:30.216Z,24.50
2022-08-24T14:29:17.714Z,24.50
2022-08-24T14:31:53.460Z,24.20
2022-08-24T14:34:35.167Z,23.90
2022-08-24T14:37:18.499Z,23.80
2022-08-24T14:39:55.037Z,24.00
2022-08-24T14:42:37.747Z,24.10
2022-08-24T14:45:28.472Z,24.20
2022-08-24T14:48:08.177Z,23.60
2022-08-24T14:51:13.799Z,23.50
2022-08-24T14:53:49.797Z,23.50
2022-08-24T14:56:37.994Z,23.80
2022-08-24T14:59:38.406Z,23.40
2022-08-24T15:02:45.441Z,23.30
2022-08-24T15:05:21.831Z,23.20
2022-08-24T15:08:06.113Z,23.30
2022-08-24T15:10:54.403Z,23.30
2022-08-24T15:13:50.609Z,22.70
2022-08-24T15:16:23.247Z,22.90
2022-08-24T15:19:19.546Z,22.90
2022-08-24T15:22:06.860Z,22.90
2022-08-24T15:25:03.744Z,22.90
2022-08-24T15:27:55.348Z,23.20
2022-08-24T15:30:29.223Z,22.80
2022-08-24T15:33:09.000Z,22.90
2022-08-24T15:35:39.585Z,22.70
2022-08-24T15:38:23.301Z,22.70
2022-08-24T15:41:02.851Z,22.60
2022-08-24T15:43:29.769Z,22.50
2022-08-24T15:45:57.247Z,22.70
2022-08-24T15:48:25.895Z,22.50
2022-08-24T15:50:55.810Z,22.70
2022-08-24T15:53:25.794Z,22.70
2022-08-24T15:55:53.293Z,22.60
2022-08-24T15:58:35.240Z,22.70
2022-08-24T16:01:41.150Z,22.30
2022-08-24T16:04:35.485Z,22.30
2022-08-24T16:07:02.381Z,22.30
2022-08-24T16:09:29.092Z,22.10
2022-08-24T16:12:06.743Z,22.00
2022-08-24T16:14:47.643Z,21.80
2022-08-24T16:17:25.283Z,21.60
2022-08-24T16:19:56.170Z,21.60
2022-08-24T16:22:32.968Z,21.80
2022-08-24T16:25:25.017Z,22.00
2022-08-24T16:27:56.730Z,22.30
2022-08-24T16:30:47.222Z,22.10
2022-08-24T16:33:39.194Z,22.10
2022-08-24T16:36:17.621Z,22.20
2022-08-24T16:38:51.698Z,22.20
2022-08-24T16:41:22.480Z,21.90
2022-08-24T16:43:49.828Z,21.90
2022-08-24T16:46:23.188Z,21.90
2022-08-24T16:48:50.422Z,21.80
2022-08-24T16:51:17.241Z,21.80
2022-08-24T16:53:43.970Z,21.70
2022-08-24T16:56:13.619Z,21.80
2022-08-24T16:58:43.005Z,21.70
2022-08-24T17:01:09.855Z,21.90
2022-08-24T17:03:40.979Z,22.30
2022-08-24T17:06:07.979Z,22.40
2022-08-24T17:08:34.736Z,22.70
2022-08-24T17:11:03.934Z,22.90
2022-08-24T17:13:49.736Z,22.80
2022-08-24T17:16:19.113Z,23.00
2022-08-24T17:18:46.282Z,22.90
2022-08-24T17:21:13.270Z,23.10
2022-08-24T17:23:41.751Z,23.10
2022-08-24T17:26:20.565Z,23.00
2022-08-24T17:28:49.878Z,23.10
2022-08-24T17:31:17.243Z,23.30
2022-08-24T17:33:44.110Z,23.40
2022-08-24T17:36:15.939Z,23.40
2022-08-24T17:38:53.095Z,23.40
2022-08-24T17:41:22.943Z,23.40
2022-08-24T17:43:52.259Z,23.60
2022-08-24T17:46:19.977Z,23.60
2022-08-24T17:48:48.173Z,23.70
2022-08-24T17:51:15.371Z,23.90
2022-08-24T17:53:42.286Z,23.80
2022-08-24T17:56:10.898Z,23.80
2022-08-24T17:58:57.616Z,23.80
2022-08-24T18:01:24.972Z,23.80
2022-08-24T18:03:51.933Z,23.90
2022-08-24T18:06:19.714Z,23.90
2022-08-24T18:08:48.371Z,23.90
2022-08-24T18:11:15.441Z,23.70
2022-08-24T18:13:42.582Z,23.80
2022-08-24T18:16:16.375Z,23.60
2022-08-24T18:18:43.530Z,23.50
2022-08-24T18:21:10.512Z,23.50
2022-08-24T18:23:43.408Z,23.40
2022-08-24T18:26:11.348Z,23.40
2022-08-24T18:28:38.321Z,23.50
2022-08-24T18:31:10.412Z,23.50
2022-08-24T18:33:37.321Z,23.40
2022-08-24T18:36:04.307Z,23.40
2022-08-24T18:38:31.266Z,23.50
2022-08-24T18:41:00.736Z,23.50
2022-08-24T18:43:28.416Z,23.40
2022-08-24T18:45:55.360Z,23.60
2022-08-24T18:48:22.778Z,23.60
2022-08-24T18:50:50.641Z,23.50
2022-08-24T18:53:17.769Z,23.50
2022-08-24T18:55:46.223Z,23.50
2022-08-24T18:58:13.463Z,23.60
2022-08-24T19:00:41.192Z,23.80
2022-08-24T19:03:09.454Z,23.70
2022-08-24T19:05:36.341Z,23.90
2022-08-24T19:08:04.215Z,24.40
2022-08-24T19:10:36.713Z,24.30
2022-08-24T19:13:08.526Z,24.30
2022-08-24T19:15:40.114Z,24.30
2022-08-24T19:18:10.928Z,24.40
2022-08-24T19:20:44.637Z,24.30
2022-08-24T19:23:17.551Z,24.30
2022-08-24T19:25:45.415Z,24.30
2022-08-24T19:28:12.306Z,24.40
2022-08-24T19:30:39.977Z,24.30
2022-08-24T19:33:11.766Z,24.30
2022-08-24T19:35:41.075Z,24.30
2022-08-24T19:38:08.150Z,24.20
2022-08-24T19:40:35.248Z,24.20
2022-08-24T19:43:03.019Z,24.20
2022-08-24T19:45:49.588Z,24.10
2022-08-24T19:48:17.054Z,24.10
2022-08-24T19:50:44.361Z,24.00
2022-08-24T19:53:11.781Z,24.00
2022-08-24T19:55:38.533Z,24.00
2022-08-24T19:58:37.712Z,24.00
2022-08-24T20:01:19.124Z,24.00
2022-08-24T20:03:46.265Z,23.90
2022-08-24T20:06:14.104Z,23.90
2022-08-24T20:08:41.246Z,23.90
2022-08-24T20:11:09.279Z,23.90
2022-08-24T20:13:36.336Z,24.60
2022-08-24T20:16:07.280Z,24.30
2022-08-24T20:18:38.447Z,23.90
2022-08-24T20:21:05.588Z,24.30
2022-08-24T20:23:32.585Z,24.20
2022-08-24T20:26:03.005Z,23.80
2022-08-24T20:28:47.089Z,23.80
2022-08-24T20:31:15.181Z,23.80
2022-08-24T20:33:42.290Z,24.50
2022-08-24T20:36:25.704Z,24.50
2022-08-24T20:38:55.295Z,25.00
2022-08-24T20:41:24.061Z,25.10
2022-08-24T20:43:50.968Z,25.10
2022-08-24T20:46:17.890Z,24.90
2022-08-24T20:48:46.510Z,24.70
2022-08-24T20:51:22.881Z,24.70
2022-08-24T20:53:49.632Z,25.00
2022-08-24T20:56:30.670Z,25.10
2022-08-24T20:59:00.682Z,25.20
2022-08-24T21:01:27.594Z,25.20
2022-08-24T21:03:54.428Z,25.10
2022-08-24T21:06:21.292Z,25.10
2022-08-24T21:08:51.797Z,25.00
2022-08-24T21:11:19.210Z,25.10
2022-08-24T21:13:46.619Z,25.00
2022-08-24T21:16:16.038Z,24.90
2022-08-24T21:18:43.749Z,25.50
2022-08-24T21:21:10.718Z,25.00
2022-08-24T21:23:37.555Z,24.90
2022-08-24T21:26:10.285Z,24.80
2022-08-24T21:28:40.367Z,24.80
2022-08-24T21:31:07.332Z,24.80
2022-08-24T21:33:53.884Z,24.90
2022-08-24T21:36:23.609Z,25.00
2022-08-24T21:38:53.450Z,25.10
2022-08-24T21:41:20.387Z,25.00
2022-08-24T21:43:47.180Z,25.10
2022-08-24T21:46:14.373Z,25.30
2022-08-24T21:48:41.228Z,25.20
2022-08-24T21:51:08.105Z,25.60
2022-08-24T21:53:35.003Z,25.30
2022-08-24T21:56:02.326Z,25.50
2022-08-24T21:58:29.602Z,25.40
2022-08-24T22:00:59.167Z,25.40
2022-08-24T22:03:33.210Z,25.50
2022-08-24T22:06:08.594Z,25.60
2022-08-24T22:08:36.794Z,25.60
2022-08-24T22:11:04.827Z,25.50
2022-08-24T22:13:32.382Z,25.40
2022-08-24T22:15:59.220Z,25.40
2022-08-24T22:18:26.156Z,25.50
2022-08-24T22:20:52.996Z,25.60
2022-08-24T22:23:19.790Z,25.70
2022-08-24T22:25:53.708Z,26.10
2022-08-24T22:28:21.355Z,26.90
2022-08-24T22:30:49.227Z,26.80
2022-08-24T22:33:17.244Z,27.00
2022-08-24T22:35:45.594Z,26.90
2022-08-24T22:38:13.021Z,27.00
2022-08-24T22:40:39.990Z,26.70
2022-08-24T22:43:06.856Z,26.60
2022-08-24T22:45:33.716Z,26.60
2022-08-24T22:48:00.437Z,26.60
2022-08-24T22:50:27.255Z,26.60
2022-08-24T22:52:54.587Z,26.60
2022-08-24T22:55:21.346Z,26.60
2022-08-24T22:57:51.405Z,26.60
2022-08-24T23:00:18.734Z,26.60
2022-08-24T23:02:45.485Z,27.10
2022-08-24T23:05:12.446Z,26.50
2022-08-24T23:07:39.169Z,26.50
2022-08-24T23:10:06.714Z,26.50
2022-08-24T23:12:33.559Z,26.50
2022-08-24T23:15:00.522Z,26.50
2022-08-24T23:17:27.364Z,26.50
2022-08-24T23:19:59.947Z,26.60
2022-08-24T23:22:32.458Z,26.60
2022-08-24T23:25:00.396Z,26.50
2022-08-24T23:27:27.735Z,26.60
2022-08-24T23:30:06.469Z,26.50
2022-08-24T23:32:33.750Z,26.50
2022-08-24T23:35:00.650Z,26.50
2022-08-24T23:37:27.669Z,26.50
2022-08-24T23:39:54.481Z,26.50
2022-08-24T23:42:21.280Z,26.40
2022-08-24T23:44:48.084Z,26.40
2022-08-24T23:47:14.875Z,26.40
2022-08-24T23:49:41.748Z,26.40
2022-08-24T23:52:08.805Z,26.40
2022-08-24T23:54:53.027Z,26.50
2022-08-24T23:57:19.802Z,26.50
2022-08-24T23:59:46.568Z,27.00
